sensor_id;sensor_type;location;lat;lon;timestamp;pressure;altitude;pressure_sealevel;temperature;humidity
67818;BME280;54614;47.576;7.524;2023-04-24T00:00:37;97644.19;;;25.66;36.76
67818;BME280;54614;47.576;7.524;2023-04-24T00:03:06;97646.88;;;25.66;36.50
67818;BME280;54614;47.576;7.524;2023-04-24T00:05:33;97652.72;;;25.63;36.93
67818;BME280;54614;47.576;7.524;2023-04-24T00:07:59;97652.97;;;25.62;36.82
67818;BME280;54614;47.576;7.524;2023-04-24T00:10:25;97649.56;;;25.66;36.72
67818;BME280;54614;47.576;7.524;2023-04-24T00:12:51;97640.88;;;25.64;36.89
67818;BME280;54614;47.576;7.524;2023-04-24T00:15:17;97640.06;;;25.64;36.63
67818;BME280;54614;47.576;7.524;2023-04-24T00:17:43;97644.63;;;25.63;36.70
67818;BME280;54614;47.576;7.524;2023-04-24T00:20:09;97646.28;;;25.64;36.82
67818;BME280;54614;47.576;7.524;2023-04-24T00:22:36;97643.94;;;25.68;37.00
67818;BME280;54614;47.576;7.524;2023-04-24T00:25:01;97652.72;;;25.63;37.03
67818;BME280;54614;47.576;7.524;2023-04-24T00:27:28;97648.97;;;25.64;36.68
67818;BME280;54614;47.576;7.524;2023-04-24T00:29:54;97636.34;;;25.65;36.63
67818;BME280;54614;47.576;7.524;2023-04-24T00:32:20;97648.97;;;25.64;36.70
67818;BME280;54614;47.576;7.524;2023-04-24T00:34:46;97653.78;;;25.62;36.80
67818;BME280;54614;47.576;7.524;2023-04-24T00:37:11;97654.59;;;25.63;36.93
67818;BME280;54614;47.576;7.524;2023-04-24T00:39:37;97645.13;;;25.60;36.85
67818;BME280;54614;47.576;7.524;2023-04-24T00:42:03;97641.38;;;25.61;36.71
67818;BME280;54614;47.576;7.524;2023-04-24T00:44:35;97650.50;;;25.60;37.01
67818;BME280;54614;47.576;7.524;2023-04-24T00:47:01;97645.44;;;25.64;36.81
67818;BME280;54614;47.576;7.524;2023-04-24T00:49:27;97651.56;;;25.59;36.70
67818;BME280;54614;47.576;7.524;2023-04-24T00:51:53;97654.50;;;25.58;37.04
67818;BME280;54614;47.576;7.524;2023-04-24T00:54:19;97656.94;;;25.59;36.82
67818;BME280;54614;47.576;7.524;2023-04-24T00:56:46;97656.38;;;25.57;36.95
67818;BME280;54614;47.576;7.524;2023-04-24T00:59:13;97645.34;;;25.59;36.78
67818;BME280;54614;47.576;7.524;2023-04-24T01:01:40;97655.56;;;25.57;36.84
67818;BME280;54614;47.576;7.524;2023-04-24T01:04:09;97651.81;;;25.58;36.43
67818;BME280;54614;47.576;7.524;2023-04-24T01:06:43;97649.34;;;25.56;36.69
67818;BME280;54614;47.576;7.524;2023-04-24T01:09:10;97648.53;;;25.56;36.64
67818;BME280;54614;47.576;7.524;2023-04-24T01:11:37;97649.13;;;25.58;36.71
67818;BME280;54614;47.576;7.524;2023-04-24T01:14:04;97638.25;;;25.53;37.03
67818;BME280;54614;47.576;7.524;2023-04-24T01:16:30;97636.38;;;25.53;36.69
67818;BME280;54614;47.576;7.524;2023-04-24T01:18:55;97640.69;;;25.54;36.92
67818;BME280;54614;47.576;7.524;2023-04-24T01:21:23;97632.63;;;25.54;36.83
67818;BME280;54614;47.576;7.524;2023-04-24T01:23:53;97631.56;;;25.55;36.40
67818;BME280;54614;47.576;7.524;2023-04-24T01:26:19;97635.88;;;25.56;36.52
67818;BME280;54614;47.576;7.524;2023-04-24T01:28:46;97626.75;;;25.57;36.61
67818;BME280;54614;47.576;7.524;2023-04-24T01:31:14;97625.34;;;25.55;36.93
67818;BME280;54614;47.576;7.524;2023-04-24T01:33:42;97634.72;;;25.52;36.81
67818;BME280;54614;47.576;7.524;2023-04-24T01:36:10;97642.91;;;25.57;36.75
67818;BME280;54614;47.576;7.524;2023-04-24T01:38:36;97638.00;;;25.54;36.76
67818;BME280;54614;47.576;7.524;2023-04-24T01:41:02;97642.22;;;25.50;36.49
67818;BME280;54614;47.576;7.524;2023-04-24T01:43:29;97640.34;;;25.51;36.71
67818;BME280;54614;47.576;7.524;2023-04-24T01:45:55;97641.75;;;25.53;36.75
67818;BME280;54614;47.576;7.524;2023-04-24T01:48:22;97638.00;;;25.54;36.37
67818;BME280;54614;47.576;7.524;2023-04-24T01:50:48;97638.47;;;25.51;36.54
67818;BME280;54614;47.576;7.524;2023-04-24T01:53:14;97638.72;;;25.50;36.46
67818;BME280;54614;47.576;7.524;2023-04-24T01:55:40;97643.88;;;25.51;36.44
67818;BME280;54614;47.576;7.524;2023-04-24T01:58:06;97632.28;;;25.51;36.89
67818;BME280;54614;47.576;7.524;2023-04-24T02:00:33;97638.72;;;25.50;36.65
67818;BME280;54614;47.576;7.524;2023-04-24T02:02:59;97638.72;;;25.50;36.59
67818;BME280;54614;47.576;7.524;2023-04-24T02:05:24;97640.34;;;25.51;36.61
67818;BME280;54614;47.576;7.524;2023-04-24T02:07:50;97638.97;;;25.48;36.57
67818;BME280;54614;47.576;7.524;2023-04-24T02:10:16;97637.91;;;25.49;36.62
67818;BME280;54614;47.576;7.524;2023-04-24T02:12:42;97641.41;;;25.50;36.58
67818;BME280;54614;47.576;7.524;2023-04-24T02:15:08;97632.53;;;25.49;36.47
67818;BME280;54614;47.576;7.524;2023-04-24T02:17:34;97639.78;;;25.49;36.74
67818;BME280;54614;47.576;7.524;2023-04-24T02:20:00;97638.72;;;25.50;36.40
67818;BME280;54614;47.576;7.524;2023-04-24T02:22:26;97648.69;;;25.49;36.62
67818;BME280;54614;47.576;7.524;2023-04-24T02:24:52;97652.44;;;25.48;36.45
67818;BME280;54614;47.576;7.524;2023-04-24T02:27:17;97653.97;;;25.44;36.88
67818;BME280;54614;47.576;7.524;2023-04-24T02:29:43;97652.66;;;25.47;36.87
67818;BME280;54614;47.576;7.524;2023-04-24T02:32:09;97646.47;;;25.46;36.82
67818;BME280;54614;47.576;7.524;2023-04-24T02:34:38;97643.78;;;25.46;36.64
67818;BME280;54614;47.576;7.524;2023-04-24T02:37:04;97646.69;;;25.45;36.48
67818;BME280;54614;47.576;7.524;2023-04-24T02:39:29;97644.81;;;25.45;36.66
67818;BME280;54614;47.576;7.524;2023-04-24T02:41:55;97639.44;;;25.45;36.52
67818;BME280;54614;47.576;7.524;2023-04-24T02:44:21;97645.06;;;25.44;36.56
67818;BME280;54614;47.576;7.524;2023-04-24T02:46:48;97647.75;;;25.44;36.74
67818;BME280;54614;47.576;7.524;2023-04-24T02:49:13;97637.81;;;25.44;36.85
67818;BME280;54614;47.576;7.524;2023-04-24T02:51:39;97655.59;;;25.45;36.73
67818;BME280;54614;47.576;7.524;2023-04-24T02:54:08;97657.47;;;25.45;36.76
67818;BME280;54614;47.576;7.524;2023-04-24T02:56:35;97660.16;;;25.45;36.67
67818;BME280;54614;47.576;7.524;2023-04-24T02:59:01;97660.41;;;25.43;36.65
67818;BME280;54614;47.576;7.524;2023-04-24T03:01:27;97663.34;;;25.42;36.51
67818;BME280;54614;47.576;7.524;2023-04-24T03:03:53;97677.94;;;25.46;36.60
67818;BME280;54614;47.576;7.524;2023-04-24T03:06:19;97679.81;;;25.45;36.54
67818;BME280;54614;47.576;7.524;2023-04-24T03:08:46;97685.69;;;25.42;36.75
67818;BME280;54614;47.576;7.524;2023-04-24T03:11:12;97680.88;;;25.44;36.62
67818;BME280;54614;47.576;7.524;2023-04-24T03:13:38;97685.44;;;25.44;36.62
67818;BME280;54614;47.576;7.524;2023-04-24T03:16:04;97685.94;;;25.41;36.65
67818;BME280;54614;47.576;7.524;2023-04-24T03:18:30;97693.53;;;25.44;36.77
67818;BME280;54614;47.576;7.524;2023-04-24T03:20:56;97691.06;;;25.42;36.88
67818;BME280;54614;47.576;7.524;2023-04-24T03:23:21;97693.19;;;25.40;36.97
67818;BME280;54614;47.576;7.524;2023-04-24T03:25:47;97698.56;;;25.40;36.79
67818;BME280;54614;47.576;7.524;2023-04-24T03:28:14;97707.00;;;25.44;36.70
67818;BME280;54614;47.576;7.524;2023-04-24T03:30:40;97703.47;;;25.43;36.82
67818;BME280;54614;47.576;7.524;2023-04-24T03:33:06;97710.28;;;25.34;36.75
67818;BME280;54614;47.576;7.524;2023-04-24T03:35:32;97706.53;;;25.35;36.85
67818;BME280;54614;47.576;7.524;2023-04-24T03:37:57;97709.22;;;25.35;36.88
67818;BME280;54614;47.576;7.524;2023-04-24T03:40:23;97700.44;;;25.39;36.99
67818;BME280;54614;47.576;7.524;2023-04-24T03:42:49;97703.94;;;25.40;nan
67818;BME280;54614;47.576;7.524;2023-04-24T03:45:15;97706.31;;;25.36;36.80
67818;BME280;54614;47.576;7.524;2023-04-24T03:47:41;97701.25;;;25.40;37.08
67818;BME280;54614;47.576;7.524;2023-04-24T03:50:07;97706.66;;;25.40;37.03
67818;BME280;54614;47.576;7.524;2023-04-24T03:52:33;97711.69;;;25.36;36.68
67818;BME280;54614;47.576;7.524;2023-04-24T03:54:59;97707.34;;;25.35;36.87
67818;BME280;54614;47.576;7.524;2023-04-24T03:57:24;97718.25;;;25.29;37.13
67818;BME280;54614;47.576;7.524;2023-04-24T03:59:50;97714.84;;;25.33;36.91
67818;BME280;54614;47.576;7.524;2023-04-24T04:02:17;97728.06;;;25.35;36.75
67818;BME280;54614;47.576;7.524;2023-04-24T04:04:42;97723.84;;;25.39;36.74
67818;BME280;54614;47.576;7.524;2023-04-24T04:07:08;97731.34;;;25.37;36.89
67818;BME280;54614;47.576;7.524;2023-04-24T04:09:34;97727.84;;;25.36;36.82
67818;BME280;54614;47.576;7.524;2023-04-24T04:12:00;97727.84;;;25.36;37.13
67818;BME280;54614;47.576;7.524;2023-04-24T04:14:27;97734.28;;;25.35;37.04
67818;BME280;54614;47.576;7.524;2023-04-24T04:16:52;97738.75;;;25.30;37.17
67818;BME280;54614;47.576;7.524;2023-04-24T04:19:18;97745.53;;;25.32;36.81
67818;BME280;54614;47.576;7.524;2023-04-24T04:21:44;97744.47;;;25.33;36.89
67818;BME280;54614;47.576;7.524;2023-04-24T04:24:11;97747.75;;;25.35;36.92
67818;BME280;54614;47.576;7.524;2023-04-24T04:26:38;97757.09;;;25.33;37.18
67818;BME280;54614;47.576;7.524;2023-04-24T04:29:04;97756.97;;;25.39;36.98
67818;BME280;54614;47.576;7.524;2023-04-24T04:31:30;97760.16;;;25.36;36.85
67818;BME280;54614;47.576;7.524;2023-04-24T04:33:56;97757.78;;;25.40;37.07
67818;BME280;54614;47.576;7.524;2023-04-24T04:36:22;97755.81;;;25.35;36.78
67818;BME280;54614;47.576;7.524;2023-04-24T04:38:49;97751.25;;;25.36;36.86
67818;BME280;54614;47.576;7.524;2023-04-24T04:41:15;97757.22;;;25.38;37.01
67818;BME280;54614;47.576;7.524;2023-04-24T04:43:42;97767.16;;;25.37;36.81
67818;BME280;54614;47.576;7.524;2023-04-24T04:46:08;97771.72;;;25.37;36.92
67818;BME280;54614;47.576;7.524;2023-04-24T04:48:36;97777.94;;;25.37;36.85
67818;BME280;54614;47.576;7.524;2023-04-24T04:51:02;97782.50;;;25.37;36.91
67818;BME280;54614;47.576;7.524;2023-04-24T04:53:28;97786.47;;;25.34;36.84
67818;BME280;54614;47.576;7.524;2023-04-24T04:55:54;97786.47;;;25.34;36.67
67818;BME280;54614;47.576;7.524;2023-04-24T04:58:19;97783.56;;;25.36;36.67
67818;BME280;54614;47.576;7.524;2023-04-24T05:00:45;97790.81;;;25.35;37.01
67818;BME280;54614;47.576;7.524;2023-04-24T05:03:11;97798.88;;;25.35;36.76
67818;BME280;54614;47.576;7.524;2023-04-24T05:05:37;97802.41;;;25.36;37.09
67818;BME280;54614;47.576;7.524;2023-04-24T05:08:08;97807.78;;;25.36;36.70
67818;BME280;54614;47.576;7.524;2023-04-24T05:10:35;97806.50;;;25.38;36.73
67818;BME280;54614;47.576;7.524;2023-04-24T05:13:03;97809.88;;;25.34;36.62
67818;BME280;54614;47.576;7.524;2023-04-24T05:15:30;97815.03;;;25.35;36.53
67818;BME280;54614;47.576;7.524;2023-04-24T05:17:56;97815.16;;;25.29;36.85
67818;BME280;54614;47.576;7.524;2023-04-24T05:20:22;97825.44;;;25.32;36.74
67818;BME280;54614;47.576;7.524;2023-04-24T05:22:49;97824.63;;;25.31;36.71
67818;BME280;54614;47.576;7.524;2023-04-24T05:25:14;97837.28;;;25.31;36.77
67818;BME280;54614;47.576;7.524;2023-04-24T05:27:40;97839.97;;;25.31;36.75
67818;BME280;54614;47.576;7.524;2023-04-24T05:30:07;97848.75;;;25.26;36.96
67818;BME280;54614;47.576;7.524;2023-04-24T05:32:33;97837.97;;;25.26;36.91
67818;BME280;54614;47.576;7.524;2023-04-24T05:34:59;97847.22;;;25.07;39.53
67818;BME280;54614;47.576;7.524;2023-04-24T05:37:25;97853.88;;;25.16;38.15
67818;BME280;54614;47.576;7.524;2023-04-24T05:39:51;97860.09;;;25.28;37.42
67818;BME280;54614;47.576;7.524;2023-04-24T05:42:17;97863.13;;;25.32;37.12
67818;BME280;54614;47.576;7.524;2023-04-24T05:44:42;97869.34;;;25.32;37.27
67818;BME280;54614;47.576;7.524;2023-04-24T05:47:09;97864.78;;;25.33;37.02
67818;BME280;54614;47.576;7.524;2023-04-24T05:49:35;97873.09;;;25.31;37.21
67818;BME280;54614;47.576;7.524;2023-04-24T05:52:00;97882.56;;;25.34;36.95
67818;BME280;54614;47.576;7.524;2023-04-24T05:54:26;97882.09;;;25.37;36.89
67818;BME280;54614;47.576;7.524;2023-04-24T05:56:52;97872.25;;;25.31;37.26
67818;BME280;54614;47.576;7.524;2023-04-24T05:59:19;97866.06;;;25.30;37.24
67818;BME280;54614;47.576;7.524;2023-04-24T06:01:45;97881.41;;;25.30;37.00
67818;BME280;54614;47.576;7.524;2023-04-24T06:04:12;97873.91;;;25.32;36.94
67818;BME280;54614;47.576;7.524;2023-04-24T06:06:39;97877.41;;;25.32;37.17
67818;BME280;54614;47.576;7.524;2023-04-24T06:09:05;97887.59;;;25.30;37.24
67818;BME280;54614;47.576;7.524;2023-04-24T06:11:32;97931.84;;;25.34;36.99
67818;BME280;54614;47.576;7.524;2023-04-24T06:13:58;97935.34;;;25.35;36.82
67818;BME280;54614;47.576;7.524;2023-04-24T06:16:23;97935.59;;;25.33;36.91
67818;BME280;54614;47.576;7.524;2023-04-24T06:18:49;97916.84;;;25.27;36.84
67818;BME280;54614;47.576;7.524;2023-04-24T06:21:16;97919.91;;;25.30;36.90
67818;BME280;54614;47.576;7.524;2023-04-24T06:23:42;97924.00;;;25.33;36.89
67818;BME280;54614;47.576;7.524;2023-04-24T06:26:08;97920.72;;;25.31;36.69
67818;BME280;54614;47.576;7.524;2023-04-24T06:28:34;97929.84;;;25.30;36.98
67818;BME280;54614;47.576;7.524;2023-04-24T06:31:00;97925.88;;;25.32;36.92
67818;BME280;54614;47.576;7.524;2023-04-24T06:33:26;97937.91;;;25.30;36.93
67818;BME280;54614;47.576;7.524;2023-04-24T06:35:52;97946.03;;;25.00;40.62
67818;BME280;54614;47.576;7.524;2023-04-24T06:38:18;97955.22;;;24.92;40.44
67818;BME280;54614;47.576;7.524;2023-04-24T06:40:44;97957.34;;;24.90;40.04
67818;BME280;54614;47.576;7.524;2023-04-24T06:43:10;97957.03;;;24.98;39.63
67818;BME280;54614;47.576;7.524;2023-04-24T06:45:36;97955.69;;;25.19;38.59
67818;BME280;54614;47.576;7.524;2023-04-24T06:48:02;97961.91;;;25.20;38.62
67818;BME280;54614;47.576;7.524;2023-04-24T06:50:28;97960.50;;;25.29;37.93
67818;BME280;54614;47.576;7.524;2023-04-24T06:52:54;97959.13;;;25.38;37.33
67818;BME280;54614;47.576;7.524;2023-04-24T06:55:19;97962.41;;;25.40;36.92
67818;BME280;54614;47.576;7.524;2023-04-24T06:57:45;97966.16;;;25.39;37.32
67818;BME280;54614;47.576;7.524;2023-04-24T07:00:12;97959.13;;;25.38;37.06
67818;BME280;54614;47.576;7.524;2023-04-24T07:02:38;97965.44;;;25.44;37.09
67818;BME280;54614;47.576;7.524;2023-04-24T07:05:05;97956.66;;;25.36;36.99
67818;BME280;54614;47.576;7.524;2023-04-24T07:07:31;97957.88;;;25.11;39.78
67818;BME280;54614;47.576;7.524;2023-04-24T07:09:57;97959.88;;;25.03;40.00
67818;BME280;54614;47.576;7.524;2023-04-24T07:12:23;97955.78;;;25.13;39.34
67818;BME280;54614;47.576;7.524;2023-04-24T07:14:50;97964.03;;;25.29;38.30
67818;BME280;54614;47.576;7.524;2023-04-24T07:17:16;97963.94;;;25.48;37.44
67818;BME280;54614;47.576;7.524;2023-04-24T07:19:42;97960.91;;;25.56;36.98
67818;BME280;54614;47.576;7.524;2023-04-24T07:22:08;97960.66;;;25.57;36.82
67818;BME280;54614;47.576;7.524;2023-04-24T07:24:34;97960.91;;;25.56;36.69
67818;BME280;54614;47.576;7.524;2023-04-24T07:27:00;97963.13;;;25.59;36.66
67818;BME280;54614;47.576;7.524;2023-04-24T07:29:29;97968.50;;;25.59;36.68
67818;BME280;54614;47.576;7.524;2023-04-24T07:31:55;97958.31;;;25.61;36.35
67818;BME280;54614;47.576;7.524;2023-04-24T07:34:21;97984.44;;;25.60;36.58
67818;BME280;54614;47.576;7.524;2023-04-24T07:36:47;97984.34;;;25.67;36.41
67818;BME280;54614;47.576;7.524;2023-04-24T07:39:13;97983.53;;;25.66;36.15
67818;BME280;54614;47.576;7.524;2023-04-24T07:41:39;97991.38;;;25.68;36.36
67818;BME280;54614;47.576;7.524;2023-04-24T07:44:05;97998.06;;;25.65;36.06
67818;BME280;54614;47.576;7.524;2023-04-24T07:46:31;98003.44;;;25.65;36.06
67818;BME280;54614;47.576;7.524;2023-04-24T07:48:58;97999.94;;;25.65;36.33
67818;BME280;54614;47.576;7.524;2023-04-24T07:51:25;98007.53;;;25.68;36.30
67818;BME280;54614;47.576;7.524;2023-04-24T07:53:53;98007.38;;;25.63;36.11
67818;BME280;54614;47.576;7.524;2023-04-24T07:56:21;98020.84;;;25.63;35.96
67818;BME280;54614;47.576;7.524;2023-04-24T07:58:46;98014.88;;;25.61;36.25
67818;BME280;54614;47.576;7.524;2023-04-24T08:01:12;98023.88;;;25.55;35.90
67818;BME280;54614;47.576;7.524;2023-04-24T08:03:38;98017.34;;;25.62;35.74
67818;BME280;54614;47.576;7.524;2023-04-24T08:06:04;98024.06;;;25.72;35.68
67818;BME280;54614;47.576;7.524;2023-04-24T08:08:30;98026.75;;;25.30;36.91
67818;BME280;54614;47.576;7.524;2023-04-24T08:10:56;98029.09;;;25.26;36.93
67818;BME280;54614;47.576;7.524;2023-04-24T08:13:22;98035.13;;;24.92;37.99
67818;BME280;54614;47.576;7.524;2023-04-24T08:15:48;98033.06;;;24.75;38.66
67818;BME280;54614;47.576;7.524;2023-04-24T08:18:14;98029.75;;;24.73;38.65
67818;BME280;54614;47.576;7.524;2023-04-24T08:20:41;98034.91;;;24.75;38.69
67818;BME280;54614;47.576;7.524;2023-04-24T08:23:08;98027.53;;;25.19;41.65
67818;BME280;54614;47.576;7.524;2023-04-24T08:25:34;98030.56;;;25.52;40.92
67818;BME280;54614;47.576;7.524;2023-04-24T08:28:03;98034.06;;;25.53;39.42
67818;BME280;54614;47.576;7.524;2023-04-24T08:30:29;98035.69;;;25.42;38.23
67818;BME280;54614;47.576;7.524;2023-04-24T08:32:56;98036.09;;;25.27;38.50
67818;BME280;54614;47.576;7.524;2023-04-24T08:35:22;98039.88;;;25.38;37.98
67818;BME280;54614;47.576;7.524;2023-04-24T08:37:48;98042.56;;;25.38;37.61
67818;BME280;54614;47.576;7.524;2023-04-24T08:40:16;98047.88;;;25.56;37.38
67818;BME280;54614;47.576;7.524;2023-04-24T08:42:45;98059.78;;;25.67;37.07
67818;BME280;54614;47.576;7.524;2023-04-24T08:45:12;98051.03;;;25.53;37.48
67818;BME280;54614;47.576;7.524;2023-04-24T08:47:40;98051.28;;;25.52;37.16
67818;BME280;54614;47.576;7.524;2023-04-24T08:50:08;98054.47;;;25.60;37.08
67818;BME280;54614;47.576;7.524;2023-04-24T08:52:35;98047.59;;;25.76;36.64
67818;BME280;54614;47.576;7.524;2023-04-24T08:55:01;98065.78;;;25.81;36.42
67818;BME280;54614;47.576;7.524;2023-04-24T08:57:28;98060.16;;;25.82;36.21
67818;BME280;54614;47.576;7.524;2023-04-24T08:59:57;98067.19;;;25.83;35.92
67818;BME280;54614;47.576;7.524;2023-04-24T09:02:24;98071.63;;;25.78;36.08
67818;BME280;54614;47.576;7.524;2023-04-24T09:04:52;98077.03;;;25.89;36.20
67818;BME280;54614;47.576;7.524;2023-04-24T09:07:19;98073.50;;;25.89;36.10
67818;BME280;54614;47.576;7.524;2023-04-24T09:09:50;98072.09;;;25.86;35.77
67818;BME280;54614;47.576;7.524;2023-04-24T09:12:17;98068.59;;;25.86;35.90
67818;BME280;54614;47.576;7.524;2023-04-24T09:14:42;98059.66;;;25.74;36.12
67818;BME280;54614;47.576;7.524;2023-04-24T09:17:11;98067.63;;;25.68;36.34
67818;BME280;54614;47.576;7.524;2023-04-24T09:19:37;98078.22;;;25.63;36.16
67818;BME280;54614;47.576;7.524;2023-04-24T09:22:07;98073.31;;;25.60;36.17
67818;BME280;54614;47.576;7.524;2023-04-24T09:24:34;98081.84;;;25.57;36.12
67818;BME280;54614;47.576;7.524;2023-04-24T09:27:01;98095.53;;;25.56;35.84
67818;BME280;54614;47.576;7.524;2023-04-24T09:29:28;98091.81;;;25.57;36.15
67818;BME280;54614;47.576;7.524;2023-04-24T09:31:54;98091.34;;;25.60;36.03
67818;BME280;54614;47.576;7.524;2023-04-24T09:34:25;98099.88;;;25.57;36.08
67818;BME280;54614;47.576;7.524;2023-04-24T09:36:52;98089.09;;;25.57;35.75
67818;BME280;54614;47.576;7.524;2023-04-24T09:39:18;98096.00;;;25.53;36.01
67818;BME280;54614;47.576;7.524;2023-04-24T09:41:53;98088.66;;;25.60;35.82
67818;BME280;54614;47.576;7.524;2023-04-24T09:44:25;98090.97;;;25.56;36.05
67818;BME280;54614;47.576;7.524;2023-04-24T09:46:59;98093.81;;;25.61;36.07
67818;BME280;54614;47.576;7.524;2023-04-24T09:49:30;98100.59;;;25.64;35.85
67818;BME280;54614;47.576;7.524;2023-04-24T09:52:10;98094.31;;;25.70;36.03
67818;BME280;54614;47.576;7.524;2023-04-24T09:54:38;98097.53;;;25.90;35.21
67818;BME280;54614;47.576;7.524;2023-04-24T09:57:04;98097.63;;;25.84;35.29
67818;BME280;54614;47.576;7.524;2023-04-24T09:59:31;98098.66;;;25.71;35.59
67818;BME280;54614;47.576;7.524;2023-04-24T10:01:56;98102.19;;;25.72;35.75
67818;BME280;54614;47.576;7.524;2023-04-24T10:04:28;98104.88;;;25.72;35.58
67818;BME280;54614;47.576;7.524;2023-04-24T10:06:57;98109.44;;;25.71;35.54
67818;BME280;54614;47.576;7.524;2023-04-24T10:09:26;98105.69;;;25.72;35.77
67818;BME280;54614;47.576;7.524;2023-04-24T10:11:53;98112.13;;;25.71;35.98
67818;BME280;54614;47.576;7.524;2023-04-24T10:14:22;98098.06;;;25.69;35.77
67818;BME280;54614;47.576;7.524;2023-04-24T10:16:53;98098.19;;;25.74;35.84
67818;BME280;54614;47.576;7.524;2023-04-24T10:19:19;98099.03;;;25.75;35.90
67818;BME280;54614;47.576;7.524;2023-04-24T10:21:46;98108.88;;;25.81;35.95
67818;BME280;54614;47.576;7.524;2023-04-24T10:24:17;98106.63;;;25.78;35.96
67818;BME280;54614;47.576;7.524;2023-04-24T10:26:45;98097.41;;;25.85;36.04
67818;BME280;54614;47.576;7.524;2023-04-24T10:29:16;98108.06;;;25.92;36.02
67818;BME280;54614;47.576;7.524;2023-04-24T10:31:43;98109.69;;;25.81;36.02
67818;BME280;54614;47.576;7.524;2023-04-24T10:34:11;98101.75;;;25.86;35.99
67818;BME280;54614;47.576;7.524;2023-04-24T10:36:47;98107.16;;;25.98;35.86
67818;BME280;54614;47.576;7.524;2023-04-24T10:39:15;98106.25;;;26.04;35.80
67818;BME280;54614;47.576;7.524;2023-04-24T10:41:42;98113.13;;;26.00;35.92
67818;BME280;54614;47.576;7.524;2023-04-24T10:44:13;98108.00;;;26.10;35.86
67818;BME280;54614;47.576;7.524;2023-04-24T10:46:46;98101.81;;;26.21;35.50
67818;BME280;54614;47.576;7.524;2023-04-24T10:49:13;98097.81;;;26.24;35.63
67818;BME280;54614;47.576;7.524;2023-04-24T10:51:49;98107.78;;;26.23;35.83
67818;BME280;54614;47.576;7.524;2023-04-24T10:57:28;98098.06;;;26.11;35.93
67818;BME280;54614;47.576;7.524;2023-04-24T11:00:20;98117.16;;;26.21;35.97
67818;BME280;54614;47.576;7.524;2023-04-24T11:02:47;98115.28;;;26.10;36.16
67818;BME280;54614;47.576;7.524;2023-04-24T11:05:17;98123.84;;;26.18;35.75
67818;BME280;54614;47.576;7.524;2023-04-24T11:08:14;98113.19;;;26.23;35.97
67818;BME280;54614;47.576;7.524;2023-04-24T11:10:47;98111.56;;;26.34;35.72
67818;BME280;54614;47.576;7.524;2023-04-24T11:13:22;98111.81;;;26.32;35.78
67818;BME280;54614;47.576;7.524;2023-04-24T11:16:43;98113.44;;;26.33;35.49
67818;BME280;54614;47.576;7.524;2023-04-24T11:22:01;98112.59;;;26.21;35.38
67818;BME280;54614;47.576;7.524;2023-04-24T11:24:49;98109.78;;;26.28;35.35
67818;BME280;54614;47.576;7.524;2023-04-24T11:27:21;98121.91;;;26.37;35.30
67818;BME280;54614;47.576;7.524;2023-04-24T11:32:41;98116.16;;;26.33;34.95
67818;BME280;54614;47.576;7.524;2023-04-24T11:37:48;98112.34;;;26.23;35.04
67818;BME280;54614;47.576;7.524;2023-04-24T11:40:17;98111.41;;;26.17;35.00
67818;BME280;54614;47.576;7.524;2023-04-24T11:42:46;98112.59;;;26.21;35.13
67818;BME280;54614;47.576;7.524;2023-04-24T11:47:42;98123.59;;;26.20;35.04
67818;BME280;54614;47.576;7.524;2023-04-24T11:50:12;98118.22;;;26.20;34.85
67818;BME280;54614;47.576;7.524;2023-04-24T11:52:41;98130.88;;;26.19;34.99
67818;BME280;54614;47.576;7.524;2023-04-24T11:55:28;98145.53;;;26.23;34.87
67818;BME280;54614;47.576;7.524;2023-04-24T11:57:59;98158.19;;;26.23;35.03
67818;BME280;54614;47.576;7.524;2023-04-24T12:00:28;98136.63;;;26.23;34.74
67818;BME280;54614;47.576;7.524;2023-04-24T12:03:09;98142.00;;;26.23;34.83
67818;BME280;54614;47.576;7.524;2023-04-24T12:05:36;98137.44;;;26.23;35.00
67818;BME280;54614;47.576;7.524;2023-04-24T12:08:02;98146.47;;;25.57;37.68
67818;BME280;54614;47.576;7.524;2023-04-24T12:10:30;98139.06;;;25.23;38.72
67818;BME280;54614;47.576;7.524;2023-04-24T12:12:57;98142.00;;;25.21;38.25
67818;BME280;54614;47.576;7.524;2023-04-24T12:15:24;98132.41;;;25.25;38.17
67818;BME280;54614;47.576;7.524;2023-04-24T12:17:52;98133.38;;;25.31;38.19
67818;BME280;54614;47.576;7.524;2023-04-24T12:20:31;98130.22;;;25.64;37.57
67818;BME280;54614;47.576;7.524;2023-04-24T12:23:00;98127.13;;;25.49;37.31
67818;BME280;54614;47.576;7.524;2023-04-24T12:25:38;98125.66;;;25.94;36.62
67818;BME280;54614;47.576;7.524;2023-04-24T12:30:35;98122.13;;;26.36;35.30
67818;BME280;54614;47.576;7.524;2023-04-24T12:33:02;98121.97;;;26.30;35.39
67818;BME280;54614;47.576;7.524;2023-04-24T12:35:31;98130.75;;;26.26;35.59
67818;BME280;54614;47.576;7.524;2023-04-24T12:38:06;98124.00;;;26.35;35.25
67818;BME280;54614;47.576;7.524;2023-04-24T12:40:33;98117.88;;;26.28;35.54
67818;BME280;54614;47.576;7.524;2023-04-24T12:43:00;98119.19;;;26.37;35.70
67818;BME280;54614;47.576;7.524;2023-04-24T12:45:26;98122.47;;;26.39;35.50
67818;BME280;54614;47.576;7.524;2023-04-24T12:47:54;98120.56;;;26.28;35.66
67818;BME280;54614;47.576;7.524;2023-04-24T12:50:20;98112.72;;;26.26;35.47
67818;BME280;54614;47.576;7.524;2023-04-24T12:52:46;98118.13;;;25.85;36.39
67818;BME280;54614;47.576;7.524;2023-04-24T12:55:12;98120.47;;;25.51;37.44
67818;BME280;54614;47.576;7.524;2023-04-24T12:57:40;98118.69;;;25.45;37.91
67818;BME280;54614;47.576;7.524;2023-04-24T13:00:08;98105.13;;;25.82;37.39
67818;BME280;54614;47.576;7.524;2023-04-24T13:02:34;98105.03;;;25.58;37.83
67818;BME280;54614;47.576;7.524;2023-04-24T13:05:01;98098.13;;;25.62;38.13
67818;BME280;54614;47.576;7.524;2023-04-24T13:07:28;98111.78;;;25.67;37.75
67818;BME280;54614;47.576;7.524;2023-04-24T13:09:55;98100.44;;;25.77;37.84
67818;BME280;54614;47.576;7.524;2023-04-24T13:12:22;98098.69;;;25.83;37.53
67818;BME280;54614;47.576;7.524;2023-04-24T13:14:49;98100.78;;;25.81;37.70
67818;BME280;54614;47.576;7.524;2023-04-24T13:17:16;98102.56;;;25.87;37.63